Time;durP1;ratioP1;P1;durP2;ratioP2;P2;SDS_P1;SDS_P2;PMS_P1;PMS_P2;Temp;Humidity;BMP_temperature;BMP_pressure;BME280_temperature;BME280_humidity;BME280_pressure;Samples;Min_cycle;Max_cycle;Signal;HPM_P1;HPM_P2
2023/06/26 00:00:56;;;;;;;0.10;0.10;;;;;;;25.94;49.06;101270.50;5119398;28;20089;-82
2023/06/26 00:03:23;;;;;;;0.10;0.10;;;;;;;25.92;49.46;101269.78;5115931;28;20081;-82
2023/06/26 00:05:50;;;;;;;0.10;0.10;;;;;;;25.88;49.12;101270.13;5117487;28;20107;-82
2023/06/26 00:08:16;;;;;;;0.30;0.30;;;;;;;25.85;48.91;101265.81;5119047;28;20365;-83
2023/06/26 00:10:43;;;;;;;0.00;0.00;;;;;;;25.82;49.16;101269.63;5112973;28;20032;-82
2023/06/26 00:13:12;;;;;;;0.20;0.20;;;;;;;25.79;48.32;101277.16;5117484;28;20032;-84
2023/06/26 00:15:38;;;;;;;0.20;0.20;;;;;;;25.75;48.75;101276.53;5119481;28;20028;-83
2023/06/26 00:18:09;;;;;;;0.10;0.10;;;;;;;25.73;48.42;101278.47;5113924;28;20027;-82
2023/06/26 00:20:38;;;;;;;0.43;0.43;;;;;;;25.69;48.92;101279.72;5116188;28;20374;-84
2023/06/26 00:23:16;;;;;;;0.10;0.10;;;;;;;25.64;49.30;101285.47;5117785;28;20515;-83
2023/06/26 00:25:43;;;;;;;0.10;0.10;;;;;;;25.52;49.87;101281.00;5118571;28;20070;-83
2023/06/26 00:28:09;;;;;;;0.40;0.40;;;;;;;25.43;50.44;101296.13;5112832;28;20456;-83
2023/06/26 00:30:35;;;;;;;0.30;0.30;;;;;;;25.40;49.77;101301.81;5115733;28;20051;-83
2023/06/26 00:33:02;;;;;;;0.10;0.10;;;;;;;25.36;49.84;101313.84;5121439;28;20384;-81
2023/06/26 00:35:28;;;;;;;1.38;0.95;;;;;;;25.29;49.73;101308.00;5118183;28;20030;-82
2023/06/26 00:37:54;;;;;;;0.17;0.17;;;;;;;25.25;49.50;101311.09;5118828;28;20020;-82
2023/06/26 00:40:20;;;;;;;0.15;0.15;;;;;;;25.18;49.11;101303.41;5119191;28;20057;-83
2023/06/26 00:42:46;;;;;;;0.43;0.43;;;;;;;25.08;49.38;101304.19;5117514;28;20031;-83
2023/06/26 00:52:29;;;;;;;0.32;0.32;;;;;;;24.97;49.89;101310.41;5073502;28;20405;-83
2023/06/26 00:56:48;;;;;;;0.43;0.43;;;;;;;24.94;50.05;101318.78;4954965;28;20046;-84
2023/06/26 01:01:52;;;;;;;0.43;0.43;;;;;;;24.66;50.86;101323.47;5096935;22;20048;-84
2023/06/26 01:04:18;;;;;;;1.45;1.35;;;;;;;24.30;51.62;101335.94;5103737;28;20027;-84
2023/06/26 01:06:48;;;;;;;0.20;0.20;;;;;;;24.28;51.49;101327.06;5105203;28;20027;-85
2023/06/26 01:09:18;;;;;;;0.10;0.10;;;;;;;24.37;51.54;101326.41;5094411;28;20020;-83
2023/06/26 01:11:44;;;;;;;0.10;0.10;;;;;;;24.25;51.56;101328.16;5091077;28;20111;-82
2023/06/26 01:14:11;;;;;;;0.00;0.00;;;;;;;24.24;51.70;101329.13;5096171;28;20087;-82
2023/06/26 01:16:39;;;;;;;0.15;0.15;;;;;;;24.14;52.16;101342.44;5092797;28;20028;-83
2023/06/26 01:19:11;;;;;;;0.05;0.05;;;;;;;24.10;52.26;101324.69;5092956;28;20020;-82
2023/06/26 01:21:43;;;;;;;0.10;0.10;;;;;;;24.07;52.83;101330.28;5093060;28;20020;-82
2023/06/26 01:24:20;;;;;;;0.10;0.10;;;;;;;24.03;52.65;101328.78;5094115;28;20094;-83
2023/06/26 01:26:49;;;;;;;0.40;0.40;;;;;;;23.81;53.81;101332.91;5086966;28;20032;-83
2023/06/26 01:29:17;;;;;;;0.13;0.13;;;;;;;23.72;54.14;101341.66;5092041;28;20024;-83
2023/06/26 01:31:46;;;;;;;0.30;0.30;;;;;;;23.79;54.09;101337.59;5084250;28;20439;-81
2023/06/26 01:34:12;;;;;;;0.30;0.30;;;;;;;23.76;54.17;101345.88;5092135;28;20032;-84
2023/06/26 01:36:39;;;;;;;0.10;0.10;;;;;;;23.70;54.23;101343.59;5091703;28;20048;-83
2023/06/26 01:39:05;;;;;;;0.10;0.10;;;;;;;23.73;54.43;101343.41;5089802;28;20028;-82
2023/06/26 01:41:32;;;;;;;0.05;0.05;;;;;;;23.61;55.46;101338.81;5083095;28;20485;-81
2023/06/26 01:47:03;;;;;;;0.20;0.20;;;;;;;23.64;55.38;101335.91;5111554;27;20384;-81
2023/06/26 01:53:11;;;;;;;0.25;0.25;;;;;;;23.58;56.05;101329.09;5117562;27;20396;-82
2023/06/26 01:56:01;;;;;;;0.10;0.10;;;;;;;23.58;55.85;101335.34;5119479;28;20031;-82
2023/06/26 01:58:28;;;;;;;0.08;0.08;;;;;;;23.52;55.92;101340.31;5105327;28;20043;-82
2023/06/26 02:00:55;;;;;;;0.00;0.00;;;;;;;23.45;56.73;101339.84;5108373;28;20156;-82
2023/06/26 02:03:24;;;;;;;0.10;0.10;;;;;;;23.46;56.46;101336.16;5111140;28;20039;-83
2023/06/26 02:05:51;;;;;;;0.40;0.40;;;;;;;23.53;55.51;101334.78;5101419;28;20023;-82
2023/06/26 02:08:17;;;;;;;0.10;0.10;;;;;;;23.36;57.07;101341.31;5105880;28;20055;-82
2023/06/26 02:10:43;;;;;;;0.70;0.70;;;;;;;23.32;56.80;101334.38;5099534;28;20044;-83
2023/06/26 02:13:09;;;;;;;0.10;0.10;;;;;;;23.25;57.13;101342.03;5101723;28;20036;-83
2023/06/26 02:15:35;;;;;;;0.20;0.20;;;;;;;23.22;57.56;101342.22;5107187;28;20019;-83
2023/06/26 02:18:01;;;;;;;0.98;0.80;;;;;;;23.06;57.94;101350.44;5110402;28;20023;-82
2023/06/26 02:20:27;;;;;;;0.10;0.10;;;;;;;22.98;58.57;101360.00;5104613;28;20024;-83
2023/06/26 02:22:53;;;;;;;0.10;0.10;;;;;;;23.03;57.99;101352.47;5113802;28;20115;-83
2023/06/26 02:25:20;;;;;;;1.10;1.10;;;;;;;22.99;58.28;101348.25;5100038;28;20024;-83
2023/06/26 02:27:47;;;;;;;0.10;0.10;;;;;;;23.04;58.02;101346.09;5114570;28;20031;-82
2023/06/26 02:30:13;;;;;;;0.55;0.55;;;;;;;22.86;59.17;101348.16;5099894;28;20020;-83
2023/06/26 02:32:39;;;;;;;4.40;2.92;;;;;;;22.93;58.58;101349.53;5104424;28;20117;-82
2023/06/26 02:35:06;;;;;;;0.35;0.35;;;;;;;23.05;58.08;101350.53;5099864;28;20021;-82
2023/06/26 02:37:32;;;;;;;0.20;0.20;;;;;;;23.04;57.98;101356.91;5104147;28;20032;-82
2023/06/26 02:39:58;;;;;;;1.05;0.95;;;;;;;22.97;58.51;101366.38;5099920;28;20063;-82
2023/06/26 02:42:24;;;;;;;0.55;0.55;;;;;;;22.91;58.60;101363.09;5100357;28;20502;-82
2023/06/26 02:44:51;;;;;;;0.55;0.55;;;;;;;22.94;58.72;101357.50;5101518;28;20028;-82
2023/06/26 02:47:17;;;;;;;0.03;0.03;;;;;;;22.85;59.00;101371.59;5103177;28;20056;-82
2023/06/26 02:49:43;;;;;;;0.10;0.10;;;;;;;22.89;58.90;101375.88;5107391;28;20120;-82
2023/06/26 02:52:09;;;;;;;0.40;0.40;;;;;;;23.01;57.64;101363.38;5109658;28;20024;-82
2023/06/26 02:54:35;;;;;;;0.10;0.10;;;;;;;23.04;57.96;101379.41;5099602;28;20040;-82
2023/06/26 02:57:01;;;;;;;12.60;2.05;;;;;;;22.89;58.43;101373.16;5098691;28;20045;-82
2023/06/26 02:59:27;;;;;;;0.35;0.25;;;;;;;22.92;57.89;101375.66;5102134;28;20055;-82
2023/06/26 03:01:53;;;;;;;0.85;0.85;;;;;;;23.00;57.34;101368.91;5096809;28;20017;-82
2023/06/26 03:04:21;;;;;;;0.40;0.40;;;;;;;23.02;57.62;101381.34;5086134;28;20399;-81
2023/06/26 03:06:47;;;;;;;0.20;0.20;;;;;;;22.92;57.03;101375.66;5085500;28;21751;-82
2023/06/26 03:09:13;;;;;;;0.63;0.63;;;;;;;22.89;56.64;101386.66;5085528;28;20027;-82
2023/06/26 03:11:39;;;;;;;0.55;0.30;;;;;;;22.68;56.97;101388.88;5087692;28;20027;-82
2023/06/26 03:14:05;;;;;;;1.15;0.90;;;;;;;22.78;56.84;101400.00;5085734;28;20027;-82
2023/06/26 03:16:32;;;;;;;0.20;0.20;;;;;;;22.68;56.81;101402.41;5084433;28;20041;-82
2023/06/26 03:18:58;;;;;;;0.10;0.10;;;;;;;22.50;57.04;101417.88;5086097;28;20091;-82
2023/06/26 03:21:24;;;;;;;0.08;0.08;;;;;;;22.51;56.81;101408.84;5088154;28;20028;-83
2023/06/26 03:23:50;;;;;;;0.05;0.05;;;;;;;22.43;57.31;101400.31;5088957;28;20510;-82
2023/06/26 03:26:16;;;;;;;16.23;0.95;;;;;;;22.39;57.41;101407.78;5085970;28;20080;-82
2023/06/26 03:28:42;;;;;;;0.10;0.10;;;;;;;22.44;57.06;101412.88;5082344;28;20033;-82
2023/06/26 03:31:08;;;;;;;0.10;0.10;;;;;;;22.30;57.49;101414.53;5085651;28;20082;-82
2023/06/26 03:33:34;;;;;;;0.20;0.20;;;;;;;22.30;57.75;101416.38;5091140;28;20125;-82
2023/06/26 03:36:00;;;;;;;0.30;0.30;;;;;;;22.13;58.25;101414.69;5093192;28;20036;-82
2023/06/26 03:38:26;;;;;;;0.68;0.60;;;;;;;22.18;57.87;101420.69;5090826;28;20089;-82
2023/06/26 03:40:52;;;;;;;1.00;0.82;;;;;;;22.10;58.32;101420.28;5091975;28;20127;-82
2023/06/26 03:43:18;;;;;;;0.17;0.17;;;;;;;22.10;58.46;101420.28;5096826;28;20461;-83
2023/06/26 03:45:45;;;;;;;0.30;0.30;;;;;;;22.11;58.33;101422.03;5087746;28;20015;-82
2023/06/26 03:48:11;;;;;;;0.20;0.20;;;;;;;22.07;58.31;101428.53;5089891;28;20079;-82
2023/06/26 03:50:37;;;;;;;0.00;0.00;;;;;;;22.00;58.32;101430.75;5102877;28;20479;-82
2023/06/26 03:53:03;;;;;;;0.05;0.05;;;;;;;22.01;58.63;101435.19;5101881;28;20020;-82
2023/06/26 03:55:29;;;;;;;0.10;0.10;;;;;;;21.98;58.73;101433.53;5094434;28;20036;-82
2023/06/26 03:57:55;;;;;;;0.15;0.15;;;;;;;21.94;58.41;101431.09;5098963;28;20369;-82
2023/06/26 04:00:21;;;;;;;0.38;0.38;;;;;;;21.92;58.76;101441.09;5101244;28;20674;-82
2023/06/26 04:02:47;;;;;;;0.00;0.00;;;;;;;21.77;59.16;101445.56;5091279;28;20256;-82
2023/06/26 04:05:14;;;;;;;0.10;0.10;;;;;;;21.82;58.63;101438.09;5090194;28;20036;-82
2023/06/26 04:07:40;;;;;;;0.68;0.68;;;;;;;21.78;58.78;101450.00;5094750;28;20050;-82
2023/06/26 04:10:07;;;;;;;0.63;0.63;;;;;;;21.72;59.32;101455.75;5083490;28;20033;-82
2023/06/26 04:12:33;;;;;;;0.10;0.10;;;;;;;21.80;58.58;101456.19;5093058;28;20031;-82
2023/06/26 04:14:59;;;;;;;0.52;0.52;;;;;;;21.71;58.94;101454.00;5108860;28;20426;-81
2023/06/26 04:17:26;;;;;;;0.68;0.40;;;;;;;21.72;58.60;101448.53;5103959;28;20042;-81
2023/06/26 04:19:52;;;;;;;0.68;0.63;;;;;;;21.61;59.12;101462.63;5096477;28;20492;-82
2023/06/26 04:22:18;;;;;;;0.38;0.38;;;;;;;21.71;58.33;101472.88;5091038;28;20020;-82
2023/06/26 04:24:45;;;;;;;0.10;0.10;;;;;;;21.57;59.20;101477.25;5080805;28;20048;-82
2023/06/26 04:27:13;;;;;;;0.00;0.00;;;;;;;21.61;58.99;101476.13;5085338;28;20495;-82
2023/06/26 04:29:39;;;;;;;0.10;0.10;;;;;;;21.66;58.67;101486.66;5087958;28;20245;-82
2023/06/26 04:32:06;;;;;;;0.10;0.10;;;;;;;21.55;58.98;101486.34;5085781;28;20051;-82
2023/06/26 04:34:33;;;;;;;1.15;0.65;;;;;;;21.61;58.83;101495.00;5097897;28;20028;-82
2023/06/26 04:36:59;;;;;;;0.10;0.10;;;;;;;21.64;58.60;101489.41;5097655;28;20051;-82
2023/06/26 04:39:26;;;;;;;0.10;0.10;;;;;;;21.59;58.94;101491.50;5084699;28;20090;-82
2023/06/26 04:41:52;;;;;;;0.30;0.30;;;;;;;21.65;58.41;101491.16;5080794;28;20024;-82
2023/06/26 04:44:18;;;;;;;0.00;0.00;;;;;;;21.60;58.41;101493.25;5094063;28;20087;-81
2023/06/26 04:46:44;;;;;;;0.08;0.08;;;;;;;21.59;58.19;101491.50;5109977;28;20034;-82
2023/06/26 04:49:10;;;;;;;0.98;0.63;;;;;;;21.61;57.98;101503.09;5098600;28;20043;-82
2023/06/26 04:51:40;;;;;;;0.10;0.10;;;;;;;21.57;57.97;101509.63;5100697;28;20020;-82
2023/06/26 04:54:08;;;;;;;0.32;0.32;;;;;;;21.59;58.09;101507.69;5108375;28;20028;-82
2023/06/26 04:56:35;;;;;;;0.20;0.20;;;;;;;21.63;57.66;101508.38;5105688;28;20024;-82
2023/06/26 04:59:01;;;;;;;1.95;0.55;;;;;;;21.64;57.42;101510.97;5097796;28;20024;-81
2023/06/26 05:01:29;;;;;;;0.10;0.10;;;;;;;21.62;57.42;101515.63;5110761;28;20096;-81
2023/06/26 05:03:56;;;;;;;0.08;0.08;;;;;;;21.48;57.25;101518.16;5100909;28;20027;-82
2023/06/26 05:06:23;;;;;;;1.08;1.00;;;;;;;21.61;57.13;101511.16;5102266;28;20040;-80
2023/06/26 05:08:49;;;;;;;3.40;1.55;;;;;;;21.51;57.21;101526.09;5095135;28;20005;-82
2023/06/26 05:11:15;;;;;;;1.55;0.77;;;;;;;21.61;56.96;101526.50;5100936;28;20080;-82
2023/06/26 05:13:42;;;;;;;0.00;0.00;;;;;;;21.63;56.84;101519.16;5103147;28;20035;-81
2023/06/26 05:16:08;;;;;;;0.28;0.28;;;;;;;21.70;56.53;101525.09;5097687;28;20024;-82
2023/06/26 05:18:35;;;;;;;0.08;0.08;;;;;;;21.76;56.38;101532.84;5096974;28;20067;-82
2023/06/26 05:21:02;;;;;;;0.45;0.45;;;;;;;21.74;56.41;101532.06;5097852;28;20085;-82
2023/06/26 05:23:31;;;;;;;0.00;0.00;;;;;;;21.77;56.42;101537.25;5098480;28;20082;-82
2023/06/26 05:25:58;;;;;;;1.02;0.85;;;;;;;21.77;56.37;101542.66;5091051;28;20091;-82
2023/06/26 05:28:25;;;;;;;0.10;0.10;;;;;;;21.76;56.43;101551.75;5095051;28;20036;-81
2023/06/26 05:30:52;;;;;;;0.08;0.08;;;;;;;21.84;56.37;101544.06;5093377;28;20024;-80
2023/06/26 05:33:21;;;;;;;0.10;0.10;;;;;;;21.91;56.09;101550.84;5096835;28;20095;-81
2023/06/26 05:35:48;;;;;;;0.00;0.00;;;;;;;21.80;56.57;101556.84;5098985;28;20023;-82
2023/06/26 05:38:15;;;;;;;0.47;0.47;;;;;;;21.79;56.58;101557.84;5095401;28;20042;-82
2023/06/26 05:40:41;;;;;;;0.10;0.10;;;;;;;21.85;56.89;101567.38;5097684;28;20016;-83
2023/06/26 05:43:07;;;;;;;0.10;0.10;;;;;;;21.77;57.75;101585.81;5097724;28;20110;-82
2023/06/26 05:45:34;;;;;;;0.10;0.10;;;;;;;21.83;57.37;101580.09;5097063;28;20029;-82
2023/06/26 05:48:00;;;;;;;0.35;0.35;;;;;;;21.79;57.49;101590.19;5097720;28;20032;-82
2023/06/26 05:50:27;;;;;;;11.60;1.10;;;;;;;21.80;57.94;101585.66;5100665;28;20048;-82
2023/06/26 05:52:54;;;;;;;1.10;0.63;;;;;;;21.82;58.08;101583.75;5103892;28;20054;-82
2023/06/26 05:55:21;;;;;;;0.10;0.10;;;;;;;21.88;58.10;101598.72;5109636;28;20028;-82
2023/06/26 05:57:47;;;;;;;0.00;0.00;;;;;;;21.78;58.59;101595.66;5107540;28;20056;-83
2023/06/26 06:00:14;;;;;;;1.77;0.43;;;;;;;21.93;58.34;101607.41;5109937;28;20034;-83
2023/06/26 06:02:41;;;;;;;0.20;0.20;;;;;;;22.09;57.88;101602.03;5106174;28;20055;-82
2023/06/26 06:05:08;;;;;;;0.17;0.17;;;;;;;22.23;57.22;101585.94;5107485;28;20089;-82
2023/06/26 06:07:35;;;;;;;0.35;0.35;;;;;;;22.24;56.97;101593.09;5105060;28;20040;-81
2023/06/26 06:10:02;;;;;;;0.20;0.20;;;;;;;22.15;56.24;101593.59;5107124;28;20029;-82
2023/06/26 06:12:28;;;;;;;0.00;0.00;;;;;;;22.14;55.85;101600.84;5111239;28;20012;-83
2023/06/26 06:14:55;;;;;;;0.38;0.38;;;;;;;22.02;55.06;101617.72;5103347;28;20112;-83
2023/06/26 06:17:22;;;;;;;0.10;0.10;;;;;;;22.02;54.38;101627.63;5104480;28;20028;-83
2023/06/26 06:19:48;;;;;;;0.03;0.03;;;;;;;21.88;53.82;101636.47;5104885;28;20035;-83
2023/06/26 06:22:14;;;;;;;0.10;0.10;;;;;;;21.85;53.84;101629.44;5096204;28;20034;-83
2023/06/26 06:24:40;;;;;;;0.00;0.00;;;;;;;21.73;53.55;101628.31;5099092;28;20038;-83
2023/06/26 06:27:06;;;;;;;0.10;0.10;;;;;;;21.74;53.65;101638.09;5097443;28;20035;-82
2023/06/26 06:29:32;;;;;;;0.25;0.25;;;;;;;21.77;53.48;101645.16;5098090;28;20036;-82
2023/06/26 06:31:58;;;;;;;0.10;0.10;;;;;;;21.76;53.44;101657.78;5098260;28;20024;-83
2023/06/26 06:34:24;;;;;;;0.10;0.10;;;;;;;21.74;53.32;101664.22;5097217;28;20090;-83
2023/06/26 06:36:50;;;;;;;0.03;0.03;;;;;;;21.77;53.50;101666.72;5095308;28;20050;-83
2023/06/26 06:39:17;;;;;;;0.20;0.20;;;;;;;22.00;53.43;101656.53;5099067;28;20028;-84
2023/06/26 06:41:44;;;;;;;0.15;0.15;;;;;;;22.12;53.06;101655.84;5102367;28;20151;-82
2023/06/26 06:44:10;;;;;;;0.10;0.10;;;;;;;22.39;53.07;101663.38;5101668;28;20089;-83
2023/06/26 06:46:36;;;;;;;0.10;0.10;;;;;;;22.50;51.96;101666.31;5101525;28;20032;-83
2023/06/26 06:49:04;;;;;;;0.00;0.00;;;;;;;22.41;51.55;101661.47;5101431;28;20024;-83
2023/06/26 06:51:30;;;;;;;0.10;0.10;;;;;;;22.47;51.27;101671.91;5097877;28;20059;-83
2023/06/26 06:53:56;;;;;;;0.10;0.10;;;;;;;22.32;51.73;101689.81;5092281;28;20407;-83
2023/06/26 06:56:22;;;;;;;0.10;0.10;;;;;;;22.21;51.70;101686.84;5080618;28;20020;-83
2023/06/26 06:58:48;;;;;;;0.10;0.10;;;;;;;21.95;51.85;101692.72;5098192;28;20028;-83
2023/06/26 07:01:14;;;;;;;0.00;0.00;;;;;;;21.95;52.29;101691.84;5101989;28;20023;-83
2023/06/26 07:03:40;;;;;;;0.10;0.10;;;;;;;21.90;52.03;101696.63;5102181;28;20099;-83
2023/06/26 07:06:06;;;;;;;0.10;0.10;;;;;;;21.90;52.06;101699.34;5096710;28;20452;-83
2023/06/26 07:08:32;;;;;;;0.00;0.00;;;;;;;21.91;52.17;101690.28;5101358;28;20054;-83
2023/06/26 07:10:58;;;;;;;0.00;0.00;;;;;;;21.90;52.32;101697.50;5100893;28;20513;-82
2023/06/26 07:13:25;;;;;;;0.00;0.00;;;;;;;21.89;52.06;101698.44;5101237;28;20040;-83
2023/06/26 07:15:54;;;;;;;0.52;0.52;;;;;;;21.86;51.91;101695.03;5098821;28;20123;-82
2023/06/26 07:18:20;;;;;;;0.20;0.20;;;;;;;22.07;51.45;101701.09;5102808;28;20028;-82
2023/06/26 07:20:46;;;;;;;1.65;1.17;;;;;;;22.17;51.71;101696.94;5094756;28;20040;-82
2023/06/26 07:23:12;;;;;;;0.10;0.10;;;;;;;22.16;51.23;101706.00;5099263;28;20028;-83
2023/06/26 07:25:38;;;;;;;0.00;0.00;;;;;;;22.23;51.18;101714.63;5092299;28;20036;-85
2023/06/26 07:28:11;;;;;;;0.75;0.75;;;;;;;22.14;51.06;101708.78;5098351;28;20520;-81
2023/06/26 07:30:37;;;;;;;1.40;1.10;;;;;;;22.26;51.31;101715.31;5096108;28;20028;-81
2023/06/26 07:33:03;;;;;;;0.00;0.00;;;;;;;22.26;51.21;101715.31;5097522;28;20495;-81
2023/06/26 07:35:29;;;;;;;0.10;0.10;;;;;;;22.27;51.51;101722.47;5095696;28;20032;-81
2023/06/26 07:37:55;;;;;;;1.30;1.08;;;;;;;22.39;51.68;101729.06;5094317;28;20032;-81
2023/06/26 07:40:21;;;;;;;0.10;0.10;;;;;;;22.39;51.01;101717.38;5102121;28;20028;-81
2023/06/26 07:42:48;;;;;;;0.00;0.00;;;;;;;22.45;50.98;101728.72;5098209;28;20024;-81
2023/06/26 07:45:14;;;;;;;0.00;0.00;;;;;;;22.46;50.73;101729.56;5097777;28;20027;-81
2023/06/26 07:47:40;;;;;;;0.08;0.08;;;;;;;22.34;50.71;101733.78;5096692;28;20403;-81
2023/06/26 07:50:07;;;;;;;0.00;0.00;;;;;;;22.45;50.57;101734.13;5097464;28;20024;-81
2023/06/26 07:52:33;;;;;;;0.00;0.00;;;;;;;22.38;50.76;101737.22;5090175;28;20055;-82
2023/06/26 07:54:59;;;;;;;0.20;0.20;;;;;;;22.40;50.78;101736.16;5099119;28;20039;-82
2023/06/26 07:57:26;;;;;;;0.20;0.20;;;;;;;22.36;49.99;101745.38;5101734;28;20363;-81
2023/06/26 07:59:52;;;;;;;0.45;0.45;;;;;;;22.39;50.53;101741.66;5100725;28;20059;-82
2023/06/26 08:02:18;;;;;;;0.30;0.30;;;;;;;22.45;50.31;101739.50;5099378;28;20024;-82
2023/06/26 08:04:44;;;;;;;0.10;0.10;;;;;;;22.54;50.72;101742.63;5095387;28;20233;-82
2023/06/26 08:07:10;;;;;;;0.10;0.10;;;;;;;22.50;49.69;101773.47;5099756;28;20504;-81
2023/06/26 08:09:36;;;;;;;0.00;0.00;;;;;;;22.55;49.65;101756.03;5095093;28;20037;-81
2023/06/26 08:12:03;;;;;;;0.22;0.22;;;;;;;22.56;49.99;101749.69;5101932;28;20112;-81
2023/06/26 08:14:29;;;;;;;0.00;0.00;;;;;;;22.56;49.91;101747.00;5090278;28;20051;-81
2023/06/26 08:16:55;;;;;;;0.00;0.00;;;;;;;22.74;50.04;101749.59;5088140;28;20499;-81
2023/06/26 08:19:21;;;;;;;0.10;0.10;;;;;;;22.82;49.66;101755.44;5091740;28;20522;-83
2023/06/26 08:21:48;;;;;;;0.10;0.10;;;;;;;22.79;49.40;101774.53;5100868;28;20027;-84
2023/06/26 08:24:17;;;;;;;0.10;0.10;;;;;;;22.87;49.81;101772.25;5097834;28;20025;-84
2023/06/26 08:26:44;;;;;;;0.10;0.10;;;;;;;22.85;48.44;101773.31;5102115;28;20039;-84
2023/06/26 08:29:10;;;;;;;0.08;0.08;;;;;;;22.86;48.74;101777.75;5103319;28;20031;-83
2023/06/26 08:31:37;;;;;;;0.40;0.40;;;;;;;22.91;48.72;101773.81;5099041;28;20115;-84
2023/06/26 08:34:04;;;;;;;0.10;0.10;;;;;;;22.99;48.37;101773.41;5091507;28;20044;-86
2023/06/26 08:36:31;;;;;;;0.10;0.10;;;;;;;22.97;47.40;101772.59;5082216;28;20123;-85
2023/06/26 08:38:57;;;;;;;0.70;0.70;;;;;;;23.01;47.25;101773.31;5090105;28;20020;-83
2023/06/26 08:41:23;;;;;;;0.10;0.10;;;;;;;23.07;47.25;101770.25;5092237;28;20032;-84
2023/06/26 08:43:52;;;;;;;0.00;0.00;;;;;;;23.20;47.36;101765.91;5098464;28;20032;-85
2023/06/26 08:46:19;;;;;;;0.00;0.00;;;;;;;23.19;47.36;101784.91;5097127;28;20031;-85
2023/06/26 08:48:54;;;;;;;0.00;0.00;;;;;;;23.17;46.81;101779.59;5095039;28;20043;-85
2023/06/26 08:51:25;;;;;;;0.10;0.10;;;;;;;23.04;47.12;101789.31;5095264;28;20043;-85
2023/06/26 08:54:01;;;;;;;0.65;0.65;;;;;;;23.17;46.97;101795.81;5093440;28;20044;-85
2023/06/26 08:56:32;;;;;;;0.00;0.00;;;;;;;23.27;47.75;101788.88;5092118;28;20035;-85
2023/06/26 08:58:58;;;;;;;0.13;0.13;;;;;;;23.19;46.57;101790.31;5086633;28;20096;-87
2023/06/26 09:01:25;;;;;;;0.10;0.10;;;;;;;23.20;46.27;101783.94;5084321;28;20521;-85
2023/06/26 09:03:52;;;;;;;0.00;0.00;;;;;;;23.26;46.19;101794.41;5084359;28;20052;-85
2023/06/26 09:06:18;;;;;;;0.00;0.00;;;;;;;23.34;46.12;101797.53;5087002;28;20035;-85
2023/06/26 09:08:44;;;;;;;0.20;0.20;;;;;;;23.26;45.46;101798.00;5085968;28;20038;-88
2023/06/26 09:11:11;;;;;;;0.65;0.65;;;;;;;23.36;45.79;101797.44;5072907;28;20021;-85
2023/06/26 09:13:37;;;;;;;0.08;0.08;;;;;;;23.35;45.33;101804.69;5088479;28;20027;-86
2023/06/26 09:16:07;;;;;;;0.25;0.25;;;;;;;23.52;45.35;101811.78;5085682;28;20028;-85
2023/06/26 09:18:34;;;;;;;0.08;0.08;;;;;;;23.75;45.21;101813.13;5078241;28;20096;-85
2023/06/26 09:21:05;;;;;;;0.25;0.25;;;;;;;23.78;45.77;101809.34;5078699;28;20115;-85
2023/06/26 09:23:32;;;;;;;0.10;0.10;;;;;;;23.74;44.53;101807.81;5074056;28;20032;-88
2023/06/26 09:25:58;;;;;;;0.00;0.00;;;;;;;23.64;43.41;101820.13;5074087;28;20028;-84
2023/06/26 09:28:25;;;;;;;0.05;0.05;;;;;;;23.72;43.26;101816.00;5074927;28;20038;-85
2023/06/26 09:30:52;;;;;;;0.10;0.10;;;;;;;23.70;43.15;101828.75;5074492;28;20027;-85
2023/06/26 09:33:20;;;;;;;0.20;0.20;;;;;;;23.70;42.64;101826.06;5076348;28;20034;-86
2023/06/26 09:35:48;;;;;;;0.10;0.10;;;;;;;23.84;43.76;101844.16;5076111;28;20107;-86
2023/06/26 09:38:15;;;;;;;0.10;0.10;;;;;;;23.83;42.87;101841.56;5085880;28;20466;-85
2023/06/26 09:40:41;;;;;;;0.08;0.08;;;;;;;23.96;42.47;101847.97;5097098;28;20026;-87
2023/06/26 09:43:12;;;;;;;0.00;0.00;;;;;;;24.03;43.31;101833.09;5098572;28;20398;-85
2023/06/26 09:45:40;;;;;;;0.10;0.10;;;;;;;23.93;42.69;101845.47;5098775;28;20059;-85
2023/06/26 09:48:08;;;;;;;4.45;1.65;;;;;;;24.08;42.54;101835.53;5098245;28;20415;-83
2023/06/26 09:50:35;;;;;;;0.00;0.00;;;;;;;24.25;43.04;101852.56;5092203;28;20047;-85
2023/06/26 09:53:09;;;;;;;0.10;0.10;;;;;;;24.33;42.04;101856.53;5098510;28;20081;-86
2023/06/26 09:55:43;;;;;;;0.00;0.00;;;;;;;24.41;41.71;101857.91;5095794;28;20024;-85
2023/06/26 09:58:14;;;;;;;0.05;0.05;;;;;;;24.50;42.11;101863.63;5097636;28;20523;-85
2023/06/26 10:00:42;;;;;;;0.30;0.30;;;;;;;24.62;41.14;101863.81;5094667;28;20039;-85
2023/06/26 10:03:23;;;;;;;1.55;0.63;;;;;;;24.62;41.39;101855.69;5097714;28;20459;-85
2023/06/26 10:05:49;;;;;;;0.00;0.00;;;;;;;24.54;41.40;101872.44;5089645;28;20040;-85
2023/06/26 10:08:17;;;;;;;0.03;0.03;;;;;;;24.39;42.14;101876.97;5096423;28;20487;-84
2023/06/26 10:10:48;;;;;;;0.10;0.10;;;;;;;24.32;42.30;101881.00;5095905;28;20063;-84
2023/06/26 10:13:33;;;;;;;0.83;0.67;;;;;;;24.30;41.32;101880.22;5099661;28;20040;-84
2023/06/26 10:16:01;;;;;;;0.10;0.10;;;;;;;24.17;42.33;101872.84;5091419;28;20286;-86
2023/06/26 10:18:30;;;;;;;0.13;0.13;;;;;;;24.12;42.28;101888.53;5095865;28;20040;-81
2023/06/26 10:20:59;;;;;;;0.10;0.10;;;;;;;24.08;41.89;101883.41;5099558;28;20461;-84
2023/06/26 10:23:27;;;;;;;0.22;0.22;;;;;;;24.16;42.29;101892.81;5099913;28;20055;-84
2023/06/26 10:25:58;;;;;;;0.10;0.10;;;;;;;24.14;41.93;101878.47;5098456;28;20042;-85
2023/06/26 10:28:25;;;;;;;0.00;0.00;;;;;;;23.95;42.67;101888.66;5098307;28;20032;-83
2023/06/26 10:30:53;;;;;;;0.10;0.10;;;;;;;24.20;42.99;101883.53;5092078;28;20024;-86
2023/06/26 10:33:20;;;;;;;0.13;0.13;;;;;;;24.36;43.14;101883.44;5090540;28;20032;-83
2023/06/26 10:35:47;;;;;;;0.20;0.20;;;;;;;24.44;42.63;101893.81;5094438;28;20039;-84
2023/06/26 10:38:13;;;;;;;0.10;0.10;;;;;;;24.59;42.31;101902.81;5097523;28;20024;-83
2023/06/26 10:40:49;;;;;;;0.30;0.30;;;;;;;24.62;41.68;101889.06;5100974;28;20069;-83
2023/06/26 10:43:16;;;;;;;1.30;0.73;;;;;;;24.49;41.63;101910.63;5087267;28;20021;-84
2023/06/26 10:45:54;;;;;;;0.10;0.10;;;;;;;24.54;42.05;101903.09;5086200;28;20403;-83
2023/06/26 10:48:22;;;;;;;0.10;0.10;;;;;;;24.25;41.82;101906.72;5090969;28;20031;-83
2023/06/26 10:50:49;;;;;;;0.10;0.10;;;;;;;24.25;41.73;101896.78;5091590;28;20100;-83
2023/06/26 10:55:59;;;;;;;0.08;0.08;;;;;;;24.36;42.24;101920.47;5105390;27;1203809;-80
2023/06/26 10:58:34;;;;;;;0.10;0.10;;;;;;;24.21;40.17;101901.50;5118543;27;20024;-82
2023/06/26 11:01:19;;;;;;;0.10;0.10;;;;;;;24.38;40.44;101905.88;5096629;28;20202;-81
2023/06/26 11:03:49;;;;;;;0.10;0.10;;;;;;;24.41;39.03;101915.63;5101806;28;20474;-81
2023/06/26 11:06:20;;;;;;;0.10;0.10;;;;;;;24.28;37.67;101929.06;5099848;28;20024;-80
2023/06/26 11:09:10;;;;;;;0.10;0.10;;;;;;;24.43;38.82;101934.53;5102368;28;20028;-80
2023/06/26 11:11:58;;;;;;;0.00;0.00;;;;;;;24.46;38.38;101927.09;5105299;28;20027;-80
2023/06/26 11:14:27;;;;;;;0.10;0.10;;;;;;;24.63;38.51;101925.16;5100324;28;20024;-79
2023/06/26 11:16:55;;;;;;;0.10;0.10;;;;;;;24.60;38.27;101926.22;5100476;28;20031;-80
2023/06/26 11:19:21;;;;;;;0.10;0.10;;;;;;;24.49;37.92;101937.72;5099341;28;20473;-80
2023/06/26 11:21:47;;;;;;;0.10;0.10;;;;;;;24.66;39.29;101939.44;5112939;28;20502;-79
2023/06/26 11:24:14;;;;;;;0.00;0.00;;;;;;;24.88;37.06;101938.06;5116366;28;20035;-80
2023/06/26 11:26:41;;;;;;;1.00;1.00;;;;;;;24.97;37.50;101936.59;5101981;28;20024;-86
2023/06/26 11:29:09;;;;;;;0.10;0.10;;;;;;;24.86;37.14;101942.69;5103392;28;20024;-81
2023/06/26 11:31:38;;;;;;;0.10;0.10;;;;;;;24.99;36.95;101945.53;5095370;28;20064;-81
2023/06/26 11:34:08;;;;;;;0.10;0.10;;;;;;;25.01;36.86;101949.00;5095386;28;20023;-80
2023/06/26 11:36:37;;;;;;;0.10;0.10;;;;;;;24.98;37.09;101955.47;5100368;28;20035;-81
2023/06/26 11:39:06;;;;;;;0.20;0.20;;;;;;;25.02;37.62;101948.03;5101368;28;20039;-80
2023/06/26 11:41:35;;;;;;;0.15;0.15;;;;;;;25.04;38.13;101956.94;5101059;28;20080;-79
2023/06/26 11:44:04;;;;;;;0.15;0.15;;;;;;;25.14;38.12;101960.78;5111348;28;20081;-79
2023/06/26 11:46:32;;;;;;;4.80;1.55;;;;;;;25.22;37.82;101963.00;5097764;28;20024;-80